createdAt,value
2023-04-04T00:00:55.833Z,100123.47
2023-04-04T00:03:23.707Z,100125.47
2023-04-04T00:05:51.822Z,100124.50
2023-04-04T00:08:19.338Z,100132.28
2023-04-04T00:10:47.059Z,100128.66
2023-04-04T00:13:14.888Z,100127.44
2023-04-04T00:15:42.551Z,100130.94
2023-04-04T00:18:10.651Z,100126.53
2023-04-04T00:20:38.447Z,100118.87
2023-04-04T00:23:06.123Z,100130.97
2023-04-04T00:25:33.866Z,100130.59
2023-04-04T00:28:01.577Z,100129.66
2023-04-04T00:30:30.044Z,100137.53
2023-04-04T00:32:58.263Z,100140.53
2023-04-04T00:35:25.981Z,100139.88
2023-04-04T00:37:53.572Z,100143.44
2023-04-04T00:40:21.311Z,100140.94
2023-04-04T00:42:48.807Z,100142.53
2023-04-04T00:45:16.396Z,100145.94
2023-04-04T00:47:44.397Z,100149.44
2023-04-04T00:50:12.163Z,100157.06
2023-04-04T00:52:39.710Z,100148.28
2023-04-04T00:55:07.726Z,100146.91
2023-04-04T00:57:35.355Z,100147.66
2023-04-04T01:00:05.353Z,100138.75
2023-04-04T01:02:33.391Z,100137.72
2023-04-04T01:05:00.828Z,100129.31
2023-04-04T01:07:28.755Z,100129.22
2023-04-04T01:09:57.813Z,100116.69
2023-04-04T01:12:25.758Z,100106.38
2023-04-04T01:14:53.191Z,100109.56
2023-04-04T01:17:21.484Z,100103.25
2023-04-04T01:20:03.423Z,100096.25
2023-04-04T01:22:33.906Z,100097.44
2023-04-04T01:25:02.900Z,100096.75
2023-04-04T01:27:31.417Z,100090.69
2023-04-04T01:29:59.692Z,100076.38
2023-04-04T01:33:01.301Z,100081.44
2023-04-04T01:35:36.099Z,100077.66
2023-04-04T01:38:06.339Z,100076.78
2023-04-04T01:40:35.557Z,100071.03
2023-04-04T01:43:03.959Z,100065.66
2023-04-04T01:45:32.888Z,100060.87
2023-04-04T01:48:01.270Z,100055.84
2023-04-04T01:50:29.820Z,100054.75
2023-04-04T01:52:57.318Z,100043.72
2023-04-04T01:55:25.029Z,100044.44
2023-04-04T01:57:52.519Z,100034.81
2023-04-04T02:00:20.074Z,100032.69
2023-04-04T02:02:47.395Z,100025.91
2023-04-04T02:05:15.519Z,100024.38
2023-04-04T02:07:47.445Z,100018.12
2023-04-04T02:10:16.541Z,100015.03
2023-04-04T02:12:45.524Z,100009.16
2023-04-04T02:15:13.138Z,100018.16
2023-04-04T02:17:41.417Z,100004.03
2023-04-04T02:20:10.592Z,100004.94
2023-04-04T02:22:39.272Z,100002.56
2023-04-04T02:25:06.940Z,100006.19
2023-04-04T02:27:34.488Z,100001.22
2023-04-04T02:30:02.302Z,99996.19
2023-04-04T02:32:30.267Z,99989.12
2023-04-04T02:34:57.741Z,99990.72
2023-04-04T02:37:25.866Z,99982.09
2023-04-04T02:39:54.105Z,99984.56
2023-04-04T02:42:21.834Z,99985.06
2023-04-04T02:44:50.346Z,99993.63
2023-04-04T02:47:17.980Z,99989.47
2023-04-04T02:49:45.604Z,99991.88
2023-04-04T02:52:14.059Z,99992.03
2023-04-04T02:54:43.013Z,99995.50
2023-04-04T02:57:11.328Z,99996.91
2023-04-04T02:59:39.268Z,99988.97
2023-04-04T03:02:06.813Z,99996.56
2023-04-04T03:04:36.574Z,99996.28
2023-04-04T03:07:04.278Z,99999.09
2023-04-04T03:09:31.814Z,100008.00
2023-04-04T03:12:00.612Z,100011.22
2023-04-04T03:14:29.954Z,100015.50
2023-04-04T03:16:57.520Z,100012.41
2023-04-04T03:19:25.063Z,100012.25
2023-04-04T03:21:53.398Z,100019.94
2023-04-04T03:24:20.844Z,100019.13
2023-04-04T03:26:48.295Z,100015.91
2023-04-04T03:29:16.376Z,100020.19
2023-04-04T03:31:44.121Z,100014.88
2023-04-04T03:34:11.802Z,100011.03
2023-04-04T03:36:39.613Z,100017.00
2023-04-04T03:39:07.183Z,100015.50
2023-04-04T03:41:36.408Z,100022.66
2023-04-04T03:44:04.932Z,100027.84
2023-04-04T03:46:33.558Z,100027.75
2023-04-04T03:49:02.266Z,100028.53
2023-04-04T03:51:29.988Z,100023.00
2023-04-04T03:53:57.614Z,100030.00
2023-04-04T03:56:25.061Z,100031.19
2023-04-04T03:58:55.940Z,100034.38
2023-04-04T04:01:23.814Z,100022.47
2023-04-04T04:03:51.505Z,100031.03
2023-04-04T04:06:19.294Z,100036.63
2023-04-04T04:08:46.765Z,100026.09
2023-04-04T04:11:14.452Z,100023.72
2023-04-04T04:13:42.104Z,100026.28
2023-04-04T04:16:09.654Z,100019.94
2023-04-04T04:18:37.480Z,100026.41
2023-04-04T04:21:05.318Z,100016.44
2023-04-04T04:23:33.052Z,100025.44
2023-04-04T04:26:00.949Z,100028.56
2023-04-04T04:28:33.628Z,100025.88
2023-04-04T04:31:07.425Z,100021.41
2023-04-04T04:33:37.193Z,100013.94
2023-04-04T04:36:05.861Z,100016.19
2023-04-04T04:38:34.479Z,100012.97
2023-04-04T04:41:02.894Z,100021.66
2023-04-04T04:43:31.212Z,100015.34
2023-04-04T04:45:58.946Z,100016.19
2023-04-04T04:48:27.077Z,100007.41
2023-04-04T04:50:55.057Z,100022.47
2023-04-04T04:53:23.126Z,100017.78
2023-04-04T04:55:52.355Z,100018.75
2023-04-04T04:58:25.451Z,100021.19
2023-04-04T05:00:59.769Z,100014.53
2023-04-04T05:03:29.847Z,100014.72
2023-04-04T05:05:58.477Z,100019.16
2023-04-04T05:08:25.986Z,100020.47
2023-04-04T05:10:55.161Z,100022.69
2023-04-04T05:13:23.803Z,100015.31
2023-04-04T05:15:51.348Z,100009.53
2023-04-04T05:18:19.969Z,100014.69
2023-04-04T05:20:52.800Z,100011.81
2023-04-04T05:23:21.405Z,100018.53
2023-04-04T05:25:53.309Z,100023.75
2023-04-04T05:28:21.604Z,100019.53
2023-04-04T05:30:49.318Z,100028.88
2023-04-04T05:33:17.153Z,100021.22
2023-04-04T05:35:45.771Z,100022.97
2023-04-04T05:38:14.598Z,100018.25
2023-04-04T05:40:45.371Z,100018.75
2023-04-04T05:43:13.393Z,100024.19
2023-04-04T05:45:42.879Z,100032.69
2023-04-04T05:48:10.832Z,100033.69
2023-04-04T05:50:39.418Z,100030.16
2023-04-04T05:53:07.106Z,100032.94
2023-04-04T05:55:34.533Z,100030.34
2023-04-04T05:58:02.290Z,100033.13
2023-04-04T06:00:31.472Z,100039.00
2023-04-04T06:02:59.785Z,100039.66
2023-04-04T06:05:27.313Z,100042.41
2023-04-04T06:07:54.790Z,100043.72
2023-04-04T06:10:22.642Z,100042.69
2023-04-04T06:12:51.497Z,100033.59
2023-04-04T06:15:18.942Z,100037.91
2023-04-04T06:17:46.776Z,100038.19
2023-04-04T06:20:14.620Z,100039.34
2023-04-04T06:22:42.341Z,100033.91
2023-04-04T06:25:10.909Z,100038.56
2023-04-04T06:27:38.855Z,100038.50
2023-04-04T06:30:09.010Z,100032.03
2023-04-04T06:32:38.705Z,100019.03
2023-04-04T06:35:07.401Z,100006.13
2023-04-04T06:37:36.252Z,99996.91
2023-04-04T06:40:05.192Z,99987.44
2023-04-04T06:42:33.262Z,99984.47
2023-04-04T06:45:02.653Z,99985.59
2023-04-04T06:47:32.309Z,99982.38
2023-04-04T06:50:02.250Z,99976.53
2023-04-04T06:52:30.161Z,99981.94
2023-04-04T06:54:57.942Z,99977.66
2023-04-04T06:57:25.743Z,99991.47
2023-04-04T06:59:53.982Z,99995.81
2023-04-04T07:02:21.478Z,99996.50
2023-04-04T07:04:48.908Z,99991.69
2023-04-04T07:07:16.823Z,99989.88
2023-04-04T07:09:44.234Z,99993.91
2023-04-04T07:12:11.954Z,99990.97
2023-04-04T07:14:39.598Z,100000.84
2023-04-04T07:17:17.162Z,99995.97
2023-04-04T07:19:51.700Z,99991.88
2023-04-04T07:22:19.359Z,100005.38
2023-04-04T07:24:48.194Z,100005.75
2023-04-04T07:27:15.979Z,99999.56
2023-04-04T07:29:43.381Z,100004.53
2023-04-04T07:32:10.977Z,100014.81
2023-04-04T07:34:38.700Z,100002.97
2023-04-04T07:37:06.135Z,100007.34
2023-04-04T07:39:33.537Z,100004.81
2023-04-04T07:42:01.415Z,100001.69
2023-04-04T07:44:28.813Z,100015.34
2023-04-04T07:47:08.729Z,100008.59
2023-04-04T07:49:38.288Z,100001.81
2023-04-04T07:52:06.345Z,100001.59
2023-04-04T07:54:34.029Z,100004.81
2023-04-04T07:57:02.059Z,100000.19
2023-04-04T07:59:29.431Z,100008.88
2023-04-04T08:01:56.931Z,100007.19
2023-04-04T08:04:24.643Z,100002.81
2023-04-04T08:06:53.106Z,99997.75
2023-04-04T08:09:20.512Z,100003.94
2023-04-04T08:11:48.262Z,100000.81
2023-04-04T08:14:15.665Z,100003.44
2023-04-04T08:16:43.076Z,99995.41
2023-04-04T08:19:10.734Z,100013.84
2023-04-04T08:21:38.103Z,100010.22
2023-04-04T08:24:06.309Z,100005.25
2023-04-04T08:26:33.989Z,100004.34
2023-04-04T08:29:02.070Z,100016.31
2023-04-04T08:31:30.095Z,100006.03
2023-04-04T08:33:57.926Z,100009.53
2023-04-04T08:36:25.319Z,100009.50
2023-04-04T08:38:52.808Z,100015.75
2023-04-04T08:41:21.095Z,100013.84
2023-04-04T08:43:54.650Z,100007.75
2023-04-04T08:46:25.946Z,100002.25
2023-04-04T08:48:54.461Z,99999.81
2023-04-04T08:51:22.754Z,100005.22
2023-04-04T08:53:51.266Z,99991.34
2023-04-04T08:56:18.632Z,99976.81
2023-04-04T08:58:46.515Z,99973.44
2023-04-04T09:01:14.081Z,99980.50
2023-04-04T09:03:42.027Z,99973.62
2023-04-04T09:06:09.801Z,99979.34
2023-04-04T09:08:37.364Z,99973.34
2023-04-04T09:11:05.997Z,99980.84
2023-04-04T09:13:33.720Z,99980.53
2023-04-04T09:16:01.210Z,99982.69
2023-04-04T09:18:28.917Z,99975.91
2023-04-04T09:20:56.626Z,99976.69
2023-04-04T09:23:24.948Z,99975.91
2023-04-04T09:26:03.941Z,99974.19
2023-04-04T09:28:34.427Z,99968.22
2023-04-04T09:31:04.764Z,99965.78
2023-04-04T09:33:33.551Z,99970.87
2023-04-04T09:36:11.630Z,99974.19
2023-04-04T09:38:40.655Z,99975.31
2023-04-04T09:41:10.946Z,99975.41
2023-04-04T09:43:39.800Z,99969.44
2023-04-04T09:46:08.044Z,99958.16
2023-04-04T09:48:37.067Z,99963.28
2023-04-04T09:51:06.760Z,99959.84
2023-04-04T09:53:35.991Z,99952.03
2023-04-04T09:56:03.625Z,99949.38
2023-04-04T09:58:37.279Z,99958.09
2023-04-04T10:01:09.934Z,99959.03
2023-04-04T10:03:40.775Z,99955.59
2023-04-04T10:06:10.157Z,99952.94
2023-04-04T10:08:41.662Z,99955.44
2023-04-04T10:11:11.517Z,99959.03
2023-04-04T10:13:41.787Z,99957.38
2023-04-04T10:16:10.766Z,99945.31
2023-04-04T10:18:39.247Z,99948.84
2023-04-04T10:23:40.638Z,99932.41
2023-04-04T10:26:08.282Z,99928.09
2023-04-04T10:28:35.691Z,99922.88
2023-04-04T10:31:25.590Z,99925.47
2023-04-04T10:34:14.882Z,99919.38
2023-04-04T10:36:45.946Z,99919.34
2023-04-04T10:39:33.509Z,99917.59
2023-04-04T10:42:01.552Z,99922.78
2023-04-04T10:44:34.104Z,99914.06
2023-04-04T10:47:16.484Z,99912.38
2023-04-04T10:49:45.163Z,99913.22
2023-04-04T10:52:14.202Z,99907.03
2023-04-04T10:54:42.335Z,99904.41
2023-04-04T10:57:10.664Z,99920.03
2023-04-04T11:00:02.313Z,99920.16
2023-04-04T11:02:53.030Z,99910.69
2023-04-04T11:05:28.105Z,99919.28
2023-04-04T11:08:09.831Z,99915.75
2023-04-04T11:10:44.852Z,99907.84
2023-04-04T11:13:16.323Z,99912.16
2023-04-04T11:15:55.888Z,99904.44
2023-04-04T11:18:43.937Z,99901.84
2023-04-04T11:21:19.914Z,99902.59
2023-04-04T11:23:47.644Z,99903.66
2023-04-04T11:26:30.275Z,99907.09
2023-04-04T11:28:59.393Z,99904.53
2023-04-04T11:31:29.622Z,99901.13
2023-04-04T11:34:05.866Z,99895.88
2023-04-04T11:36:39.900Z,99900.22
2023-04-04T11:39:22.815Z,99898.47
2023-04-04T11:41:53.402Z,99891.47
2023-04-04T11:44:22.602Z,99886.87
2023-04-04T11:47:09.978Z,99881.63
2023-04-04T11:49:42.365Z,99879.28
2023-04-04T11:52:12.418Z,99882.75
2023-04-04T11:54:41.865Z,99881.78
2023-04-04T11:57:13.638Z,99878.34
2023-04-04T11:59:43.020Z,99862.63
2023-04-04T12:02:10.769Z,99869.66
2023-04-04T12:04:44.537Z,99868.78
2023-04-04T12:07:12.737Z,99870.38
2023-04-04T12:09:40.689Z,99853.81
2023-04-04T12:12:08.672Z,99851.06
2023-04-04T12:14:36.079Z,99851.94
2023-04-04T12:17:03.829Z,99850.63
2023-04-04T12:19:31.830Z,99847.00
2023-04-04T12:21:59.302Z,99839.19
2023-04-04T12:24:27.067Z,99838.06
2023-04-04T12:26:54.837Z,99830.09
2023-04-04T12:29:22.955Z,99825.81
2023-04-04T12:31:51.991Z,99830.84
2023-04-04T12:34:25.847Z,99824.72
2023-04-04T12:36:55.568Z,99823.06
2023-04-04T12:39:25.919Z,99822.06
2023-04-04T12:41:54.879Z,99825.69
2023-04-04T12:44:27.338Z,99829.94
2023-04-04T12:47:00.435Z,99829.81
2023-04-04T12:49:30.328Z,99813.44
2023-04-04T12:52:03.815Z,99815.22
2023-04-04T12:54:33.264Z,99810.75
2023-04-04T12:57:04.113Z,99812.38
2023-04-04T12:59:33.227Z,99805.34
2023-04-04T13:02:07.190Z,99806.28
2023-04-04T13:04:34.835Z,99806.16
2023-04-04T13:07:03.212Z,99802.50
2023-04-04T13:09:30.838Z,99800.78
2023-04-04T13:12:02.187Z,99799.03
2023-04-04T13:15:02.062Z,99800.47
2023-04-04T13:17:46.602Z,99792.53
2023-04-04T13:20:15.780Z,99786.81
2023-04-04T13:22:43.355Z,99787.66
2023-04-04T13:25:11.446Z,99784.88
2023-04-04T13:27:39.151Z,99785.56
2023-04-04T13:30:10.062Z,99786.44
2023-04-04T13:32:39.232Z,99789.88
2023-04-04T13:35:06.941Z,99789.00
2023-04-04T13:37:34.381Z,99789.03
2023-04-04T13:40:02.025Z,99781.69
2023-04-04T13:42:31.626Z,99774.69
2023-04-04T13:44:59.264Z,99777.31
2023-04-04T13:47:27.672Z,99787.63
2023-04-04T13:49:55.537Z,99788.63
2023-04-04T13:52:23.716Z,99789.78
2023-04-04T13:54:51.559Z,99789.63
2023-04-04T13:57:18.963Z,99782.59
2023-04-04T13:59:46.560Z,99786.44
2023-04-04T14:02:14.508Z,99790.66
2023-04-04T14:04:42.182Z,99784.50
2023-04-04T14:07:09.963Z,99781.81
2023-04-04T14:09:37.732Z,99782.81
2023-04-04T14:12:05.491Z,99783.66
2023-04-04T14:14:35.603Z,99792.16
2023-04-04T14:17:04.189Z,99780.13
2023-04-04T14:19:31.834Z,99790.69
2023-04-04T14:21:59.241Z,99794.97
2023-04-04T14:24:26.832Z,99786.22
2023-04-04T14:26:54.555Z,99790.44
2023-04-04T14:29:21.970Z,99789.47
2023-04-04T14:31:49.446Z,99782.81
2023-04-04T14:34:17.189Z,99785.47
2023-04-04T14:36:44.884Z,99795.06
2023-04-04T14:39:12.936Z,99787.47
2023-04-04T14:41:40.799Z,99796.81
2023-04-04T14:44:08.578Z,99789.28
2023-04-04T14:46:36.037Z,99793.66
2023-04-04T14:49:06.181Z,99802.34
2023-04-04T14:51:34.136Z,99808.13
2023-04-04T14:54:01.582Z,99800.34
2023-04-04T14:56:29.333Z,99800.34
2023-04-04T14:58:57.134Z,99795.37
2023-04-04T15:01:24.681Z,99793.72
2023-04-04T15:03:54.053Z,99803.31
2023-04-04T15:06:21.790Z,99801.66
2023-04-04T15:08:49.667Z,99802.59
2023-04-04T15:11:17.415Z,99799.09
2023-04-04T15:13:45.051Z,99806.91
2023-04-04T15:16:12.533Z,99800.78
2023-04-04T15:18:40.350Z,99804.25
2023-04-04T15:21:07.801Z,99809.69
2023-04-04T15:23:35.306Z,99813.16
2023-04-04T15:26:03.643Z,99811.37
2023-04-04T15:28:31.020Z,99807.81
2023-04-04T15:31:01.174Z,99804.53
2023-04-04T15:33:28.884Z,99817.56
2023-04-04T15:35:56.242Z,99811.34
2023-04-04T15:38:23.700Z,99817.53
2023-04-04T15:40:51.410Z,99815.84
2023-04-04T15:43:18.840Z,99813.31
2023-04-04T15:45:47.287Z,99821.97
2023-04-04T15:48:15.492Z,99814.97
2023-04-04T15:50:43.206Z,99822.81
2023-04-04T15:53:10.918Z,99823.69
2023-04-04T15:55:38.937Z,99830.56
2023-04-04T15:58:06.819Z,99829.69
2023-04-04T16:00:34.365Z,99827.97
2023-04-04T16:03:02.195Z,99834.13
2023-04-04T16:05:29.760Z,99833.25
2023-04-04T16:07:57.158Z,99833.25
2023-04-04T16:10:24.830Z,99835.94
2023-04-04T16:12:52.278Z,99844.59
2023-04-04T16:15:19.819Z,99852.41
2023-04-04T16:17:47.589Z,99849.75
2023-04-04T16:20:15.042Z,99856.78
2023-04-04T16:22:42.430Z,99857.66
2023-04-04T16:25:10.308Z,99858.53
2023-04-04T16:27:37.704Z,99863.72
2023-04-04T16:30:06.091Z,99860.28
2023-04-04T16:32:34.346Z,99870.72
2023-04-04T16:35:01.802Z,99870.72
2023-04-04T16:37:29.257Z,99881.13
2023-04-04T16:40:00.191Z,99871.53
2023-04-04T16:42:27.845Z,99876.75
2023-04-04T16:44:55.411Z,99881.09
2023-04-04T16:47:23.099Z,99880.31
2023-04-04T16:49:51.209Z,99882.94
2023-04-04T16:52:18.760Z,99892.50
2023-04-04T16:54:46.438Z,99893.38
2023-04-04T16:57:13.831Z,99901.16
2023-04-04T16:59:41.326Z,99907.25
2023-04-04T17:02:09.291Z,99903.75
2023-04-04T17:04:41.113Z,99909.81
2023-04-04T17:07:09.393Z,99903.75
2023-04-04T17:09:37.116Z,99915.06
2023-04-04T17:12:08.194Z,99911.59
2023-04-04T17:14:36.827Z,99920.25
2023-04-04T17:17:05.431Z,99920.25
2023-04-04T17:19:35.006Z,99927.19
2023-04-04T17:22:03.246Z,99928.94
2023-04-04T17:24:30.872Z,99929.81
2023-04-04T17:27:00.741Z,99937.59
2023-04-04T17:29:28.878Z,99941.09
2023-04-04T17:31:57.102Z,99942.81
2023-04-04T17:34:25.365Z,99953.19
2023-04-04T17:36:53.352Z,99954.84
2023-04-04T17:39:20.819Z,99955.56
2023-04-04T17:41:48.231Z,99958.16
2023-04-04T17:44:16.953Z,99966.72
2023-04-04T17:46:45.126Z,99967.62
2023-04-04T17:49:13.081Z,99970.22
2023-04-04T17:51:41.063Z,99975.44
2023-04-04T17:54:09.095Z,99977.16
2023-04-04T17:56:37.245Z,99988.56
2023-04-04T17:59:05.097Z,99990.22
2023-04-04T18:01:32.693Z,99982.22
2023-04-04T18:04:00.480Z,99988.22
2023-04-04T18:06:28.131Z,99989.12
2023-04-04T18:08:55.883Z,100000.44
2023-04-04T18:11:23.993Z,100000.44
2023-04-04T18:13:51.415Z,99996.88
2023-04-04T18:16:18.885Z,100006.56
2023-04-04T18:18:46.639Z,100009.22
2023-04-04T18:21:14.002Z,100003.28
2023-04-04T18:23:41.621Z,100012.69
2023-04-04T18:26:09.406Z,100013.53
2023-04-04T18:28:36.867Z,100014.50
2023-04-04T18:31:04.341Z,100016.97
2023-04-04T18:33:32.055Z,100021.38
2023-04-04T18:36:00.359Z,100027.34
2023-04-04T18:38:28.075Z,100033.37
2023-04-04T18:40:56.566Z,100033.34
2023-04-04T18:43:24.599Z,100033.31
2023-04-04T18:45:53.566Z,100032.31
2023-04-04T18:48:24.968Z,100032.06
2023-04-04T18:50:52.350Z,100034.84
2023-04-04T18:53:19.823Z,100044.31
2023-04-04T18:55:49.208Z,100055.59
2023-04-04T18:58:16.614Z,100059.03
2023-04-04T19:00:44.537Z,100062.31
2023-04-04T19:03:13.362Z,100060.47
2023-04-04T19:05:41.344Z,100071.78
2023-04-04T19:08:09.017Z,100068.44
2023-04-04T19:10:36.701Z,100072.66
2023-04-04T19:13:04.173Z,100076.19
2023-04-04T19:15:31.891Z,100086.47
2023-04-04T19:17:59.576Z,100085.38
2023-04-04T19:20:27.308Z,100088.72
2023-04-04T19:22:54.703Z,100095.16
2023-04-04T19:25:22.448Z,100094.97
2023-04-04T19:27:49.889Z,100112.03
2023-04-04T19:30:43.925Z,100125.28
2023-04-04T19:33:13.737Z,100115.69
2023-04-04T19:35:55.615Z,100112.53
2023-04-04T19:38:34.382Z,100126.44
2023-04-04T19:41:13.034Z,100110.38
2023-04-04T19:43:45.594Z,100119.34
2023-04-04T19:46:15.164Z,100127.94
2023-04-04T19:48:43.769Z,100115.25
2023-04-04T19:51:17.341Z,100132.56
2023-04-04T19:53:52.314Z,100130.34
2023-04-04T19:56:23.051Z,100136.94
2023-04-04T19:59:02.159Z,100141.06
2023-04-04T20:01:31.824Z,100132.44
2023-04-04T20:04:17.645Z,100145.87
2023-04-04T20:06:47.696Z,100145.06
2023-04-04T20:09:37.147Z,100151.66
2023-04-04T20:12:06.909Z,100150.50
2023-04-04T20:14:34.646Z,100154.47
2023-04-04T20:17:02.352Z,100152.72
2023-04-04T20:19:29.742Z,100150.78
2023-04-04T20:21:57.565Z,100157.47
2023-04-04T20:24:25.247Z,100154.97
2023-04-04T20:26:59.573Z,100160.28
2023-04-04T20:29:34.692Z,100164.94
2023-04-04T20:32:07.937Z,100163.97
2023-04-04T20:34:46.605Z,100173.78
2023-04-04T20:37:22.084Z,100162.37
2023-04-04T20:39:57.197Z,100161.53
2023-04-04T20:42:27.772Z,100170.19
2023-04-04T20:45:00.909Z,100166.78
2023-04-04T20:47:45.376Z,100173.06
2023-04-04T20:50:16.039Z,100169.56
2023-04-04T20:52:53.373Z,100169.03
2023-04-04T20:55:22.735Z,100168.97
2023-04-04T20:57:51.387Z,100178.03
2023-04-04T21:00:28.269Z,100188.25
2023-04-04T21:02:57.330Z,100181.56
2023-04-04T21:05:32.478Z,100185.72
2023-04-04T21:08:01.517Z,100181.94
2023-04-04T21:10:28.890Z,100188.09
2023-04-04T21:12:57.709Z,100187.84
2023-04-04T21:15:30.625Z,100186.59
2023-04-04T21:18:07.133Z,100186.37
2023-04-04T21:20:46.861Z,100189.69
2023-04-04T21:23:26.592Z,100192.03
2023-04-04T21:25:58.486Z,100180.38
2023-04-04T21:28:38.647Z,100176.81
2023-04-04T21:31:14.248Z,100190.06
2023-04-04T21:33:43.202Z,100179.22
2023-04-04T21:36:24.752Z,100175.84
2023-04-04T21:38:53.217Z,100183.37
2023-04-04T21:41:31.000Z,100182.66
2023-04-04T21:44:00.756Z,100182.00
2023-04-04T21:46:31.822Z,100183.84
2023-04-04T21:48:59.686Z,100176.09
2023-04-04T21:51:27.626Z,100185.53
2023-04-04T21:53:56.143Z,100178.56
2023-04-04T21:56:32.733Z,100186.22
2023-04-04T21:59:01.915Z,100172.69
2023-04-04T22:01:30.684Z,100188.97
2023-04-04T22:03:58.991Z,100176.59
2023-04-04T22:06:27.384Z,100183.44
2023-04-04T22:08:56.642Z,100178.53
2023-04-04T22:11:26.006Z,100187.56
2023-04-04T22:14:02.930Z,100184.81
2023-04-04T22:16:31.338Z,100191.50
2023-04-04T22:19:01.269Z,100186.66
2023-04-04T22:21:29.026Z,100185.25
2023-04-04T22:24:01.893Z,100190.84
2023-04-04T22:26:32.332Z,100188.66
2023-04-04T22:29:02.916Z,100189.91
2023-04-04T22:31:34.349Z,100191.09
2023-04-04T22:34:06.463Z,100191.28
2023-04-04T22:36:35.263Z,100187.03
2023-04-04T22:39:03.137Z,100192.19
2023-04-04T22:41:30.772Z,100192.09
2023-04-04T22:43:58.348Z,100199.78
2023-04-04T22:46:28.830Z,100198.69
2023-04-04T22:49:06.901Z,100190.78
2023-04-04T22:51:43.036Z,100193.09
2023-04-04T22:54:13.182Z,100191.66
2023-04-04T22:56:40.925Z,100186.78
2023-04-04T22:59:08.397Z,100189.13
2023-04-04T23:01:36.031Z,100195.66
2023-04-04T23:04:03.773Z,100192.38
2023-04-04T23:06:31.507Z,100194.06
2023-04-04T23:08:59.330Z,100189.78
2023-04-04T23:11:27.497Z,100184.34
2023-04-04T23:13:57.015Z,100189.13
2023-04-04T23:16:26.301Z,100181.25
2023-04-04T23:18:54.241Z,100184.66
2023-04-04T23:21:22.055Z,100186.22
2023-04-04T23:23:49.752Z,100191.41
2023-04-04T23:26:17.438Z,100189.59
2023-04-04T23:28:44.830Z,100184.47
2023-04-04T23:31:12.274Z,100184.78
2023-04-04T23:33:40.040Z,100187.50
2023-04-04T23:36:07.980Z,100183.84
2023-04-04T23:38:35.826Z,100185.06
2023-04-04T23:41:03.516Z,100187.22
2023-04-04T23:43:31.221Z,100183.25
2023-04-04T23:46:00.292Z,100189.13
2023-04-04T23:48:28.349Z,100189.72
2023-04-04T23:50:56.681Z,100188.50
2023-04-04T23:53:24.283Z,100191.09
2023-04-04T23:55:51.997Z,100186.81
2023-04-04T23:58:19.439Z,100191.97
